createdAt,value
2022-09-30T00:02:54.287Z,13.30
2022-09-30T00:06:07.109Z,7.57
2022-09-30T00:09:15.451Z,6.20
2022-09-30T00:12:23.380Z,7.30
2022-09-30T00:15:29.973Z,9.43
2022-09-30T00:18:36.802Z,8.10
2022-09-30T00:21:43.801Z,7.50
2022-09-30T00:24:50.517Z,6.10
2022-09-30T00:27:58.374Z,8.03
2022-09-30T00:31:07.539Z,7.63
2022-09-30T00:34:13.884Z,7.73
2022-09-30T00:37:20.546Z,6.70
2022-09-30T00:40:27.179Z,7.50
2022-09-30T00:43:44.169Z,17.70
2022-09-30T00:46:50.256Z,7.93
2022-09-30T00:49:58.939Z,6.50
2022-09-30T00:53:15.598Z,13.50
2022-09-30T00:56:25.852Z,7.57
2022-09-30T00:59:38.636Z,7.30
2022-09-30T01:02:47.064Z,6.93
2022-09-30T01:05:54.069Z,6.70
2022-09-30T01:09:00.672Z,7.00
2022-09-30T01:12:07.736Z,8.90
2022-09-30T01:15:15.434Z,7.07
2022-09-30T01:18:30.523Z,6.60
2022-09-30T01:22:00.780Z,7.33
2022-09-30T01:25:40.009Z,9.20
2022-09-30T01:29:15.228Z,9.40
2022-09-30T01:32:35.137Z,6.50
2022-09-30T01:36:02.602Z,7.33
2022-09-30T01:39:22.898Z,7.73
2022-09-30T01:42:39.036Z,6.20
2022-09-30T01:45:52.232Z,6.83
2022-09-30T01:49:06.743Z,7.03
2022-09-30T01:52:17.652Z,12.63
2022-09-30T01:55:29.349Z,6.83
2022-09-30T01:58:42.087Z,7.33
2022-09-30T02:01:53.364Z,9.67
2022-09-30T02:05:04.735Z,7.63
2022-09-30T02:08:17.661Z,7.60
2022-09-30T02:11:27.317Z,8.13
2022-09-30T02:14:38.475Z,8.53
2022-09-30T02:17:50.717Z,6.63
2022-09-30T02:21:02.367Z,7.30
2022-09-30T02:24:13.371Z,6.47
2022-09-30T02:27:23.238Z,6.33
2022-09-30T02:30:30.750Z,6.47
2022-09-30T02:33:42.634Z,18.50
2022-09-30T02:36:54.963Z,6.50
2022-09-30T02:40:05.117Z,5.97
2022-09-30T02:43:11.970Z,6.27
2022-09-30T02:46:27.441Z,5.40
2022-09-30T02:49:40.591Z,4.93
2022-09-30T02:53:01.951Z,5.33
2022-09-30T02:56:18.500Z,5.03
2022-09-30T02:59:27.032Z,5.87
2022-09-30T03:02:33.126Z,6.40
2022-09-30T03:05:40.017Z,15.50
2022-09-30T03:08:47.472Z,6.57
2022-09-30T03:11:57.099Z,8.13
2022-09-30T03:15:24.228Z,6.10
2022-09-30T03:18:54.116Z,8.63
2022-09-30T03:22:19.458Z,6.37
2022-09-30T03:25:39.145Z,6.50
2022-09-30T03:28:54.376Z,9.10
2022-09-30T03:32:12.231Z,6.80
2022-09-30T03:35:29.095Z,9.87
2022-09-30T03:38:47.192Z,8.50
2022-09-30T03:42:04.283Z,10.93
2022-09-30T03:45:20.237Z,9.30
2022-09-30T03:48:28.901Z,10.53
2022-09-30T03:51:38.511Z,14.00
2022-09-30T03:54:52.518Z,8.73
2022-09-30T03:57:59.962Z,59.40
2022-09-30T04:01:05.962Z,17.83
2022-09-30T04:04:12.533Z,12.37
2022-09-30T04:07:19.137Z,11.40
2022-09-30T04:10:25.276Z,14.27
2022-09-30T04:13:33.010Z,10.17
2022-09-30T04:16:39.322Z,12.67
2022-09-30T04:19:45.643Z,24.00
2022-09-30T04:22:51.608Z,17.67
2022-09-30T04:25:57.790Z,18.43
2022-09-30T04:29:05.518Z,26.13
2022-09-30T04:32:11.811Z,15.53
2022-09-30T04:35:17.918Z,28.50
2022-09-30T04:38:24.754Z,18.80
2022-09-30T04:41:32.380Z,7.40
2022-09-30T04:44:40.223Z,6.80
2022-09-30T04:47:46.326Z,6.73
2022-09-30T04:50:52.793Z,6.97
2022-09-30T04:53:58.761Z,6.97
2022-09-30T04:57:05.255Z,7.70
2022-09-30T05:00:14.139Z,14.80
2022-09-30T05:03:20.463Z,13.20
2022-09-30T05:06:26.927Z,13.43
2022-09-30T05:09:33.151Z,14.03
2022-09-30T05:12:40.864Z,11.90
2022-09-30T05:15:51.144Z,18.87
2022-09-30T05:18:57.090Z,11.57
2022-09-30T05:22:03.437Z,12.07
2022-09-30T05:25:09.902Z,11.43
2022-09-30T05:28:16.052Z,10.43
2022-09-30T05:31:24.170Z,15.50
2022-09-30T05:34:30.495Z,14.33
2022-09-30T05:37:36.967Z,13.57
2022-09-30T05:40:43.139Z,24.00
2022-09-30T05:43:49.681Z,12.53
2022-09-30T05:46:58.077Z,23.00
2022-09-30T05:50:04.743Z,24.83
2022-09-30T05:53:11.103Z,23.37
2022-09-30T05:56:17.500Z,9.77
2022-09-30T05:59:23.948Z,11.63
2022-09-30T06:02:31.709Z,12.20
2022-09-30T06:05:38.759Z,11.10
2022-09-30T06:08:45.395Z,7.33
2022-09-30T06:11:51.896Z,6.53
2022-09-30T06:14:58.017Z,7.63
2022-09-30T06:18:05.964Z,27.43
2022-09-30T06:21:15.474Z,18.23
2022-09-30T06:24:21.636Z,12.90
2022-09-30T06:27:28.360Z,9.43
2022-09-30T06:30:35.330Z,8.30
2022-09-30T06:33:43.527Z,11.83
2022-09-30T06:36:49.750Z,9.23
2022-09-30T06:39:56.081Z,12.87
2022-09-30T06:43:02.776Z,10.30
2022-09-30T06:46:16.507Z,9.20
2022-09-30T06:49:34.010Z,11.70
2022-09-30T06:52:47.279Z,8.57
2022-09-30T06:55:57.489Z,6.60
2022-09-30T06:59:03.662Z,6.37
2022-09-30T07:02:13.550Z,7.97
2022-09-30T07:05:21.171Z,7.63
2022-09-30T07:08:31.798Z,11.03
2022-09-30T07:11:38.971Z,5.63
2022-09-30T07:14:45.504Z,10.70
2022-09-30T07:17:56.749Z,8.73
2022-09-30T07:21:04.152Z,7.67
2022-09-30T07:24:10.439Z,5.53
2022-09-30T07:27:16.958Z,5.40
2022-09-30T07:30:27.321Z,6.80
2022-09-30T07:33:33.782Z,7.87
2022-09-30T07:36:42.194Z,7.30
2022-09-30T07:39:49.927Z,14.20
2022-09-30T07:42:55.843Z,9.77
2022-09-30T07:46:05.445Z,7.63
2022-09-30T07:49:14.985Z,10.83
2022-09-30T07:52:22.274Z,9.93
2022-09-30T07:55:28.554Z,5.30
2022-09-30T07:58:35.080Z,7.30
2022-09-30T08:01:41.662Z,5.27
2022-09-30T08:04:48.292Z,8.07
2022-09-30T08:07:55.626Z,6.13
2022-09-30T08:11:02.114Z,6.97
2022-09-30T08:14:08.748Z,6.87
2022-09-30T08:17:15.130Z,9.40
2022-09-30T08:20:22.631Z,6.53
2022-09-30T08:23:31.272Z,7.60
2022-09-30T08:26:37.694Z,9.17
2022-09-30T08:29:54.427Z,8.77
2022-09-30T08:33:02.477Z,5.27
2022-09-30T08:36:11.080Z,5.27
2022-09-30T08:39:18.706Z,5.43
2022-09-30T08:42:44.076Z,6.53
2022-09-30T08:46:04.534Z,5.77
2022-09-30T08:49:29.947Z,5.10
2022-09-30T08:52:55.200Z,4.60
2022-09-30T08:56:04.706Z,5.13
2022-09-30T08:59:20.478Z,3.43
2022-09-30T09:02:28.870Z,4.20
2022-09-30T09:05:49.925Z,5.97
2022-09-30T09:09:18.102Z,5.70
2022-09-30T09:12:36.538Z,11.07
2022-09-30T09:16:02.781Z,4.97
2022-09-30T09:19:11.534Z,4.57
2022-09-30T09:22:21.229Z,4.73
2022-09-30T09:25:30.757Z,5.40
2022-09-30T09:28:49.169Z,5.20
2022-09-30T09:31:59.539Z,4.40
2022-09-30T09:35:15.473Z,8.07
2022-09-30T09:38:44.647Z,4.80
2022-09-30T09:41:57.683Z,3.47
2022-09-30T09:45:13.388Z,4.13
2022-09-30T09:48:19.348Z,4.00
2022-09-30T09:51:32.383Z,5.50
2022-09-30T09:54:42.635Z,5.73
2022-09-30T09:57:49.378Z,5.93
2022-09-30T10:01:32.528Z,6.70
2022-09-30T10:05:00.034Z,29.92
2022-09-30T10:08:16.291Z,6.95
2022-09-30T10:11:24.399Z,6.43
2022-09-30T10:14:30.344Z,6.20
2022-09-30T10:17:39.107Z,7.23
2022-09-30T10:20:54.209Z,40.93
2022-09-30T10:24:00.541Z,36.27
2022-09-30T10:27:31.311Z,25.10
2022-09-30T10:30:42.172Z,6.93
2022-09-30T10:33:56.451Z,6.73
2022-09-30T10:37:08.704Z,6.70
2022-09-30T10:40:19.619Z,7.10
2022-09-30T10:43:29.228Z,52.20
2022-09-30T10:46:39.239Z,26.80
2022-09-30T10:49:49.919Z,44.43
2022-09-30T10:52:59.954Z,33.20
2022-09-30T10:56:07.144Z,7.25
2022-09-30T10:59:27.063Z,78.13
2022-09-30T11:02:39.329Z,6.27
2022-09-30T11:05:49.456Z,54.60
2022-09-30T11:09:01.251Z,11.48
2022-09-30T11:12:16.205Z,6.20
2022-09-30T11:15:30.044Z,5.90
2022-09-30T11:18:43.483Z,5.88
2022-09-30T11:21:57.697Z,6.00
2022-09-30T11:25:08.764Z,10.00
2022-09-30T11:28:44.757Z,5.78
2022-09-30T11:32:00.401Z,6.57
2022-09-30T11:35:19.494Z,7.15
2022-09-30T11:38:50.034Z,7.47
2022-09-30T11:42:03.817Z,6.63
2022-09-30T11:45:27.374Z,7.00
2022-09-30T11:48:46.539Z,7.35
2022-09-30T11:52:04.671Z,7.32
2022-09-30T11:55:31.160Z,7.38
2022-09-30T11:58:43.057Z,7.10
2022-09-30T12:01:53.308Z,21.23
2022-09-30T12:05:04.788Z,7.03
2022-09-30T12:08:17.208Z,7.57
2022-09-30T12:11:33.814Z,16.52
2022-09-30T12:14:46.037Z,7.38
2022-09-30T12:17:59.310Z,7.38
2022-09-30T12:21:15.828Z,7.20
2022-09-30T12:24:30.654Z,7.28
2022-09-30T12:27:45.794Z,6.90
2022-09-30T12:31:00.423Z,7.18
2022-09-30T12:34:21.948Z,18.52
2022-09-30T12:37:44.389Z,7.15
2022-09-30T12:41:14.162Z,6.68
2022-09-30T12:44:57.502Z,6.78
2022-09-30T12:48:08.680Z,6.60
2022-09-30T12:51:25.779Z,6.97
2022-09-30T12:54:35.207Z,7.30
2022-09-30T12:57:44.628Z,8.07
2022-09-30T13:01:05.685Z,5.60
2022-09-30T13:04:18.681Z,7.07
2022-09-30T13:07:24.813Z,5.80
2022-09-30T13:10:32.079Z,14.77
2022-09-30T13:14:00.984Z,5.93
2022-09-30T13:17:30.083Z,5.40
2022-09-30T13:20:56.720Z,6.45
2022-09-30T13:24:04.651Z,5.65
2022-09-30T13:27:16.476Z,6.35
2022-09-30T13:30:41.003Z,5.50
2022-09-30T13:34:06.921Z,5.35
2022-09-30T13:37:35.602Z,6.65
2022-09-30T13:41:03.289Z,7.18
2022-09-30T13:44:16.095Z,7.18
2022-09-30T13:47:29.520Z,23.13
2022-09-30T13:50:46.660Z,6.93
2022-09-30T13:53:55.784Z,7.43
2022-09-30T13:57:03.934Z,7.50
2022-09-30T14:00:14.374Z,7.63
2022-09-30T14:03:40.447Z,8.20
2022-09-30T14:07:00.573Z,17.00
2022-09-30T14:10:29.234Z,29.50
2022-09-30T14:13:51.221Z,7.70
2022-09-30T14:17:17.166Z,8.23
2022-09-30T14:20:36.142Z,7.07
2022-09-30T14:23:43.832Z,6.90
2022-09-30T14:27:18.135Z,8.20
2022-09-30T14:30:26.342Z,7.30
2022-09-30T14:33:34.493Z,7.20
2022-09-30T14:40:13.435Z,8.98
2022-09-30T14:43:24.291Z,9.90
2022-09-30T14:46:36.004Z,8.20
2022-09-30T14:49:42.446Z,8.30
2022-09-30T14:52:51.984Z,7.50
2022-09-30T14:55:59.719Z,38.80
2022-09-30T14:59:18.768Z,13.27
2022-09-30T15:02:25.044Z,9.80
2022-09-30T15:05:31.155Z,10.03
2022-09-30T15:08:37.193Z,22.93
2022-09-30T15:11:46.172Z,10.93
2022-09-30T15:14:54.411Z,12.73
2022-09-30T15:18:02.610Z,11.50
2022-09-30T15:21:13.215Z,10.97
2022-09-30T15:24:21.745Z,10.03
2022-09-30T15:27:31.512Z,14.90
2022-09-30T15:30:37.842Z,7.00
2022-09-30T15:33:44.181Z,6.73
2022-09-30T15:36:59.816Z,10.87
2022-09-30T15:40:33.340Z,7.10
2022-09-30T15:43:43.645Z,9.20
2022-09-30T15:47:09.100Z,9.10
2022-09-30T15:50:39.812Z,9.43
2022-09-30T15:53:48.981Z,10.80
2022-09-30T15:56:55.159Z,8.43
2022-09-30T16:00:07.877Z,16.43
2022-09-30T16:03:29.570Z,14.40
2022-09-30T16:06:43.817Z,9.93
2022-09-30T16:09:50.017Z,8.40
2022-09-30T16:12:56.552Z,9.20
2022-09-30T16:16:04.657Z,10.93
2022-09-30T16:19:19.066Z,13.17
2022-09-30T16:22:51.779Z,20.63
2022-09-30T16:26:20.780Z,23.73
2022-09-30T16:29:28.532Z,45.47
2022-09-30T16:32:40.222Z,9.07
2022-09-30T16:35:48.637Z,9.33
2022-09-30T16:38:54.821Z,20.90
2022-09-30T16:42:02.283Z,17.67
2022-09-30T16:45:09.067Z,30.20
2022-09-30T16:48:18.306Z,16.53
2022-09-30T16:51:24.704Z,16.50
2022-09-30T16:54:30.890Z,10.87
2022-09-30T16:57:37.237Z,33.00
2022-09-30T17:00:45.431Z,30.00
2022-09-30T17:03:55.861Z,36.43
2022-09-30T17:07:02.052Z,41.03
2022-09-30T17:10:10.658Z,44.03
2022-09-30T17:13:17.729Z,39.47
2022-09-30T17:16:24.431Z,43.23
2022-09-30T17:19:35.452Z,33.90
2022-09-30T17:22:41.859Z,36.00
2022-09-30T17:25:48.575Z,29.43
2022-09-30T17:29:00.305Z,38.70
2022-09-30T17:32:15.228Z,76.80
2022-09-30T17:35:22.854Z,35.90
2022-09-30T17:38:29.152Z,32.83
2022-09-30T17:41:52.844Z,27.63
2022-09-30T17:44:58.937Z,28.87
2022-09-30T17:48:07.859Z,66.63
2022-09-30T17:51:16.394Z,127.07
2022-09-30T17:54:23.492Z,178.70
2022-09-30T17:57:29.554Z,74.37
2022-09-30T18:00:35.384Z,55.20
2022-09-30T18:03:42.128Z,52.37
2022-09-30T18:06:49.539Z,45.07
2022-09-30T18:09:55.512Z,53.23
2022-09-30T18:13:01.850Z,33.40
2022-09-30T18:16:08.752Z,40.27
2022-09-30T18:22:27.130Z,46.63
2022-09-30T18:25:33.097Z,33.23
2022-09-30T18:28:39.835Z,39.20
2022-09-30T18:31:46.384Z,28.90
2022-09-30T18:34:52.820Z,37.43
2022-09-30T18:38:00.755Z,79.87
2022-09-30T18:41:08.291Z,61.93
2022-09-30T18:44:14.589Z,44.57
2022-09-30T18:47:20.957Z,38.33
2022-09-30T18:50:29.781Z,40.43
2022-09-30T18:53:37.307Z,56.07
2022-09-30T18:56:44.352Z,63.30
2022-09-30T18:59:51.040Z,72.67
2022-09-30T19:02:58.110Z,53.07
2022-09-30T19:06:08.868Z,45.60
2022-09-30T19:09:17.311Z,34.47
2022-09-30T19:12:23.555Z,46.63
2022-09-30T19:15:30.316Z,52.23
2022-09-30T19:18:37.128Z,60.00
2022-09-30T19:21:44.812Z,47.37
2022-09-30T19:24:52.530Z,19.73
2022-09-30T19:28:00.105Z,36.70
2022-09-30T19:31:10.573Z,24.23
2022-09-30T19:34:28.729Z,20.50
2022-09-30T19:37:37.840Z,15.50
2022-09-30T19:40:45.855Z,15.77
2022-09-30T19:43:51.853Z,13.10
2022-09-30T19:46:58.678Z,19.53
2022-09-30T19:50:06.919Z,10.43
2022-09-30T19:53:26.662Z,13.33
2022-09-30T19:56:38.572Z,12.93
2022-09-30T19:59:45.188Z,15.70
2022-09-30T20:02:52.789Z,16.37
2022-09-30T20:06:03.773Z,11.27
2022-09-30T20:09:10.059Z,13.07
2022-09-30T20:12:17.811Z,14.47
2022-09-30T20:15:45.944Z,10.20
2022-09-30T20:18:52.224Z,9.20
2022-09-30T20:21:58.595Z,8.53
2022-09-30T20:25:05.341Z,9.17
2022-09-30T20:28:13.282Z,13.37
2022-09-30T20:31:19.698Z,6.93
2022-09-30T20:34:25.825Z,9.50
2022-09-30T20:37:32.121Z,8.87
2022-09-30T20:40:38.695Z,9.33
2022-09-30T20:43:53.043Z,10.00
2022-09-30T20:46:59.447Z,10.50
2022-09-30T20:50:06.653Z,14.90
2022-09-30T20:53:14.106Z,9.27
2022-09-30T20:56:21.658Z,10.73
2022-09-30T20:59:29.432Z,7.40
2022-09-30T21:02:35.459Z,11.37
2022-09-30T21:05:41.983Z,8.10
2022-09-30T21:08:50.858Z,6.67
2022-09-30T21:11:57.036Z,10.47
2022-09-30T21:15:04.971Z,7.40
2022-09-30T21:18:11.299Z,12.77
2022-09-30T21:21:19.231Z,19.90
2022-09-30T21:24:26.198Z,8.70
2022-09-30T21:27:32.480Z,8.83
2022-09-30T21:30:42.391Z,9.83
2022-09-30T21:33:51.625Z,8.43
2022-09-30T21:36:57.461Z,8.47
2022-09-30T21:40:03.728Z,27.60
2022-09-30T21:43:10.152Z,31.17
2022-09-30T21:46:18.758Z,17.23
2022-09-30T21:49:25.427Z,8.83
2022-09-30T21:52:32.980Z,17.73
2022-09-30T21:55:39.439Z,11.83
2022-09-30T21:58:45.691Z,8.37
2022-09-30T22:01:53.824Z,8.03
2022-09-30T22:05:00.036Z,9.73
2022-09-30T22:08:07.022Z,8.53
2022-09-30T22:11:16.295Z,8.20
2022-09-30T22:14:22.573Z,6.63
2022-09-30T22:17:32.485Z,6.63
2022-09-30T22:20:38.936Z,15.47
2022-09-30T22:23:47.889Z,10.07
2022-09-30T22:26:54.338Z,9.40
2022-09-30T22:30:00.552Z,15.67
2022-09-30T22:33:25.367Z,10.00
2022-09-30T22:36:48.837Z,10.47
2022-09-30T22:39:58.669Z,12.53
2022-09-30T22:43:06.719Z,9.80
2022-09-30T22:46:12.909Z,12.50
2022-09-30T22:49:20.623Z,9.87
2022-09-30T22:52:27.001Z,14.10
2022-09-30T22:55:33.358Z,10.70
2022-09-30T22:58:39.660Z,14.00
2022-09-30T23:01:45.928Z,19.00
2022-09-30T23:04:54.528Z,11.10
2022-09-30T23:08:00.910Z,8.70
2022-09-30T23:11:07.327Z,15.53
2022-09-30T23:14:13.804Z,18.33
2022-09-30T23:17:20.151Z,10.63
2022-09-30T23:20:27.862Z,7.83
2022-09-30T23:23:35.542Z,7.83
2022-09-30T23:26:41.955Z,7.13
2022-09-30T23:29:47.931Z,7.80
2022-09-30T23:32:54.131Z,7.43
2022-09-30T23:36:02.290Z,5.80
2022-09-30T23:39:12.779Z,6.63
2022-09-30T23:42:19.329Z,7.20
2022-09-30T23:45:25.497Z,9.03
2022-09-30T23:48:31.476Z,6.67
2022-09-30T23:51:38.928Z,7.27
2022-09-30T23:54:45.295Z,7.30
2022-09-30T23:57:51.395Z,11.50
